Impacts METAR Board INFO
IDs:

KDFW - Dallas-Ft Worth Intl, TX, US

Updated at: 0040 UTC 14 Dec 2017
Potential Impact None Slight Moderate High
Time13/12Z 13/13Z 13/14Z 13/15Z 13/16Z 13/17Z 13/18Z 13/19Z 13/20Z 13/21Z 13/22Z 13/23Z 14/00Z
VIS10 10 10 10 10 10 10 10 10 10 10 10 10
CIG-- -- -- -- -- -- -- -- -- -- -- -- --
CoverCLRFEWFEWFEWSCTFEWFEWFEWFEWCLRFEWFEWFEW
FltCatVFRVFRVFRVFRVFRVFRVFRVFRVFRVFRVFRVFRVFR
WX--------------------------
WDir200200190210220220230230240250250210200
WSpd6 6 7 11 9 10 10 14 10 13 11 6 5
WGst-- -- -- -- -- -- -- 21 -- -- -- -- --
Raw hourly METARs
KDFW 131153Z 20006KT 10SM CLR 02/M02 A3005 RMK AO2 SLP175 T00221022 10056 20017 56016
KDFW 131253Z 20006KT 10SM FEW300 01/M03 A3005 RMK AO2 SLP174 T00111028
KDFW 131353Z 19007KT 10SM FEW300 03/M02 A3004 RMK AO2 SLP171 T00281022
KDFW 131453Z 21011KT 10SM FEW300 07/M01 A3004 RMK AO2 SLP171 T00721011 55004
KDFW 131553Z 22009KT 10SM SCT300 12/M03 A3004 RMK AO2 SLP171 T01221033
KDFW 131653Z 22010KT 10SM FEW300 16/M04 A3003 RMK AO2 SLP165 T01611044
KDFW 131753Z 23010KT 10SM FEW300 20/M07 A2998 RMK AO2 SLP149 T02001067 10200 20011 58020
KDFW 131853Z 23014G21KT 10SM FEW300 23/M08 A2994 RMK AO2 SLP133 T02331083
KDFW 131953Z 24010KT 10SM FEW004 FEW300 24/M07 A2990 RMK AO2 SLP123 FU FEW004 W T02391067
KDFW 132053Z 25013KT 10SM CLR 25/M07 A2988 RMK AO2 SLP113 T02501072 56034
KDFW 132153Z COR 25011KT 10SM FEW300 24/M08 A2986 RMK AO2 SLP108 T02441078
KDFW 132253Z 21006KT 10SM FEW300 22/M06 A2985 RMK AO2 SLP107 T02171061
KDFW 132353Z 20005KT 10SM FEW300 19/M07 A2986 RMK AO2 SLP108 T01891067 10250 20178 55007